sensor_id;sensor_type;location;lat;lon;timestamp;temperature;humidity
22290;DHT22;11313;50.116;8.424;2022-07-19T00:00:23;22.90;46.90
22290;DHT22;11313;50.116;8.424;2022-07-19T00:02:50;22.80;46.70
22290;DHT22;11313;50.116;8.424;2022-07-19T00:05:16;22.90;46.80
22290;DHT22;11313;50.116;8.424;2022-07-19T00:07:42;22.90;46.90
22290;DHT22;11313;50.116;8.424;2022-07-19T00:10:09;22.90;46.80
22290;DHT22;11313;50.116;8.424;2022-07-19T00:12:36;22.80;46.70
22290;DHT22;11313;50.116;8.424;2022-07-19T00:15:04;22.80;46.50
22290;DHT22;11313;50.116;8.424;2022-07-19T00:17:30;22.80;46.60
22290;DHT22;11313;50.116;8.424;2022-07-19T00:19:55;22.80;46.70
22290;DHT22;11313;50.116;8.424;2022-07-19T00:22:21;22.80;46.70
22290;DHT22;11313;50.116;8.424;2022-07-19T00:24:46;22.70;46.70
22290;DHT22;11313;50.116;8.424;2022-07-19T00:27:12;22.80;46.90
22290;DHT22;11313;50.116;8.424;2022-07-19T00:29:37;22.80;47.10
22290;DHT22;11313;50.116;8.424;2022-07-19T00:32:03;22.80;47.20
22290;DHT22;11313;50.116;8.424;2022-07-19T00:34:29;22.80;47.30
22290;DHT22;11313;50.116;8.424;2022-07-19T00:36:54;22.80;47.10
22290;DHT22;11313;50.116;8.424;2022-07-19T00:39:20;22.80;46.90
22290;DHT22;11313;50.116;8.424;2022-07-19T00:41:46;22.60;47.00
22290;DHT22;11313;50.116;8.424;2022-07-19T00:44:11;22.60;47.20
22290;DHT22;11313;50.116;8.424;2022-07-19T00:46:37;22.60;47.30
22290;DHT22;11313;50.116;8.424;2022-07-19T00:49:03;22.60;47.40
22290;DHT22;11313;50.116;8.424;2022-07-19T00:51:33;22.80;47.60
22290;DHT22;11313;50.116;8.424;2022-07-19T00:54:01;22.70;47.40
22290;DHT22;11313;50.116;8.424;2022-07-19T00:56:27;22.70;47.30
22290;DHT22;11313;50.116;8.424;2022-07-19T00:58:55;22.70;47.80
22290;DHT22;11313;50.116;8.424;2022-07-19T01:01:21;22.80;47.40
22290;DHT22;11313;50.116;8.424;2022-07-19T01:03:47;22.60;47.30
22290;DHT22;11313;50.116;8.424;2022-07-19T01:06:13;22.70;47.20
22290;DHT22;11313;50.116;8.424;2022-07-19T01:08:39;22.60;47.20
22290;DHT22;11313;50.116;8.424;2022-07-19T01:11:06;22.60;47.40
22290;DHT22;11313;50.116;8.424;2022-07-19T01:13:32;22.60;47.50
22290;DHT22;11313;50.116;8.424;2022-07-19T01:15:58;22.50;47.40
22290;DHT22;11313;50.116;8.424;2022-07-19T01:18:24;22.50;47.30
22290;DHT22;11313;50.116;8.424;2022-07-19T01:20:51;22.40;47.50
22290;DHT22;11313;50.116;8.424;2022-07-19T01:23:16;22.40;47.60
22290;DHT22;11313;50.116;8.424;2022-07-19T01:25:42;22.50;47.60
22290;DHT22;11313;50.116;8.424;2022-07-19T01:28:08;22.50;47.60
22290;DHT22;11313;50.116;8.424;2022-07-19T01:30:35;22.50;47.60
22290;DHT22;11313;50.116;8.424;2022-07-19T01:33:01;22.50;47.60
22290;DHT22;11313;50.116;8.424;2022-07-19T01:35:27;22.50;47.60
22290;DHT22;11313;50.116;8.424;2022-07-19T01:37:55;22.50;47.60
22290;DHT22;11313;50.116;8.424;2022-07-19T01:40:21;22.40;47.60
22290;DHT22;11313;50.116;8.424;2022-07-19T01:42:48;22.40;47.70
22290;DHT22;11313;50.116;8.424;2022-07-19T01:45:14;22.40;47.70
22290;DHT22;11313;50.116;8.424;2022-07-19T01:47:41;22.40;47.80
22290;DHT22;11313;50.116;8.424;2022-07-19T01:50:08;22.40;47.70
22290;DHT22;11313;50.116;8.424;2022-07-19T01:52:34;22.30;47.70
22290;DHT22;11313;50.116;8.424;2022-07-19T01:54:59;22.20;47.90
22290;DHT22;11313;50.116;8.424;2022-07-19T01:57:25;22.20;48.00
22290;DHT22;11313;50.116;8.424;2022-07-19T01:59:51;22.20;48.10
22290;DHT22;11313;50.116;8.424;2022-07-19T02:02:16;22.30;48.30
22290;DHT22;11313;50.116;8.424;2022-07-19T02:04:42;22.30;48.20
22290;DHT22;11313;50.116;8.424;2022-07-19T02:07:07;22.40;48.40
22290;DHT22;11313;50.116;8.424;2022-07-19T02:09:33;22.50;48.10
22290;DHT22;11313;50.116;8.424;2022-07-19T02:11:58;22.50;48.20
22290;DHT22;11313;50.116;8.424;2022-07-19T02:14:24;22.40;47.80
22290;DHT22;11313;50.116;8.424;2022-07-19T02:16:49;22.40;47.80
22290;DHT22;11313;50.116;8.424;2022-07-19T02:19:15;22.30;48.00
22290;DHT22;11313;50.116;8.424;2022-07-19T02:21:40;22.30;48.10
22290;DHT22;11313;50.116;8.424;2022-07-19T02:24:07;22.40;48.20
22290;DHT22;11313;50.116;8.424;2022-07-19T02:26:34;22.40;48.00
22290;DHT22;11313;50.116;8.424;2022-07-19T02:29:00;22.40;48.00
22290;DHT22;11313;50.116;8.424;2022-07-19T02:31:26;22.40;48.10
22290;DHT22;11313;50.116;8.424;2022-07-19T02:33:52;22.40;48.40
22290;DHT22;11313;50.116;8.424;2022-07-19T02:36:17;22.50;48.60
22290;DHT22;11313;50.116;8.424;2022-07-19T02:38:44;22.50;48.40
22290;DHT22;11313;50.116;8.424;2022-07-19T02:41:09;22.50;48.10
22290;DHT22;11313;50.116;8.424;2022-07-19T02:43:35;22.40;48.10
22290;DHT22;11313;50.116;8.424;2022-07-19T02:46:01;22.40;48.10
22290;DHT22;11313;50.116;8.424;2022-07-19T02:48:26;22.40;48.00
22290;DHT22;11313;50.116;8.424;2022-07-19T02:50:52;22.40;48.00
22290;DHT22;11313;50.116;8.424;2022-07-19T02:53:18;22.40;48.40
22290;DHT22;11313;50.116;8.424;2022-07-19T02:55:43;22.40;48.30
22290;DHT22;11313;50.116;8.424;2022-07-19T02:58:09;22.50;48.30
22290;DHT22;11313;50.116;8.424;2022-07-19T03:00:35;22.40;48.10
22290;DHT22;11313;50.116;8.424;2022-07-19T03:03:01;22.50;48.50
22290;DHT22;11313;50.116;8.424;2022-07-19T03:05:46;22.60;48.40
22290;DHT22;11313;50.116;8.424;2022-07-19T03:08:12;22.40;48.00
22290;DHT22;11313;50.116;8.424;2022-07-19T03:10:37;22.40;48.00
22290;DHT22;11313;50.116;8.424;2022-07-19T03:13:03;22.30;47.90
22290;DHT22;11313;50.116;8.424;2022-07-19T03:15:29;22.30;48.00
22290;DHT22;11313;50.116;8.424;2022-07-19T03:17:54;22.20;48.20
22290;DHT22;11313;50.116;8.424;2022-07-19T03:20:20;22.10;48.20
22290;DHT22;11313;50.116;8.424;2022-07-19T03:22:46;22.10;48.20
22290;DHT22;11313;50.116;8.424;2022-07-19T03:25:11;22.00;48.40
22290;DHT22;11313;50.116;8.424;2022-07-19T03:27:37;22.00;48.50
22290;DHT22;11313;50.116;8.424;2022-07-19T03:30:03;22.00;48.70
22290;DHT22;11313;50.116;8.424;2022-07-19T03:32:29;22.00;48.60
22290;DHT22;11313;50.116;8.424;2022-07-19T03:34:55;22.10;48.50
22290;DHT22;11313;50.116;8.424;2022-07-19T03:37:20;22.00;48.50
22290;DHT22;11313;50.116;8.424;2022-07-19T03:39:46;21.90;48.70
22290;DHT22;11313;50.116;8.424;2022-07-19T03:42:11;22.10;48.70
22290;DHT22;11313;50.116;8.424;2022-07-19T03:44:37;22.10;48.80
22290;DHT22;11313;50.116;8.424;2022-07-19T03:47:02;22.10;48.80
22290;DHT22;11313;50.116;8.424;2022-07-19T03:49:28;22.20;48.80
22290;DHT22;11313;50.116;8.424;2022-07-19T03:51:53;22.20;48.50
22290;DHT22;11313;50.116;8.424;2022-07-19T03:54:19;22.20;48.50
22290;DHT22;11313;50.116;8.424;2022-07-19T03:56:44;22.20;48.40
22290;DHT22;11313;50.116;8.424;2022-07-19T03:59:10;22.20;49.00
22290;DHT22;11313;50.116;8.424;2022-07-19T04:01:35;22.30;49.70
22290;DHT22;11313;50.116;8.424;2022-07-19T04:04:03;22.40;50.00
22290;DHT22;11313;50.116;8.424;2022-07-19T04:06:29;22.40;48.80
22290;DHT22;11313;50.116;8.424;2022-07-19T04:08:55;22.50;48.60
22290;DHT22;11313;50.116;8.424;2022-07-19T04:11:20;22.50;48.40
22290;DHT22;11313;50.116;8.424;2022-07-19T04:13:46;22.50;48.40
22290;DHT22;11313;50.116;8.424;2022-07-19T04:16:12;22.50;48.40
22290;DHT22;11313;50.116;8.424;2022-07-19T04:18:37;22.40;48.40
22290;DHT22;11313;50.116;8.424;2022-07-19T04:21:04;22.50;48.40
22290;DHT22;11313;50.116;8.424;2022-07-19T04:23:30;22.50;48.40
22290;DHT22;11313;50.116;8.424;2022-07-19T04:25:56;22.40;48.40
22290;DHT22;11313;50.116;8.424;2022-07-19T04:28:21;22.40;48.40
22290;DHT22;11313;50.116;8.424;2022-07-19T04:30:47;22.40;48.40
22290;DHT22;11313;50.116;8.424;2022-07-19T04:33:14;22.40;48.40
22290;DHT22;11313;50.116;8.424;2022-07-19T04:35:40;22.40;48.50
22290;DHT22;11313;50.116;8.424;2022-07-19T04:38:05;22.40;48.60
22290;DHT22;11313;50.116;8.424;2022-07-19T04:40:31;22.40;48.60
22290;DHT22;11313;50.116;8.424;2022-07-19T04:42:56;22.40;48.60
22290;DHT22;11313;50.116;8.424;2022-07-19T04:45:22;22.30;48.70
22290;DHT22;11313;50.116;8.424;2022-07-19T04:47:48;22.40;48.70
22290;DHT22;11313;50.116;8.424;2022-07-19T04:50:13;22.40;48.70
22290;DHT22;11313;50.116;8.424;2022-07-19T04:52:39;22.40;48.80
22290;DHT22;11313;50.116;8.424;2022-07-19T04:55:05;22.30;48.90
22290;DHT22;11313;50.116;8.424;2022-07-19T04:57:31;22.40;49.00
22290;DHT22;11313;50.116;8.424;2022-07-19T04:59:56;22.50;49.20
22290;DHT22;11313;50.116;8.424;2022-07-19T05:02:22;22.50;49.00
22290;DHT22;11313;50.116;8.424;2022-07-19T05:04:48;22.50;48.90
22290;DHT22;11313;50.116;8.424;2022-07-19T05:07:14;22.50;48.90
22290;DHT22;11313;50.116;8.424;2022-07-19T05:09:39;22.50;49.10
22290;DHT22;11313;50.116;8.424;2022-07-19T05:12:05;22.50;49.20
22290;DHT22;11313;50.116;8.424;2022-07-19T05:14:33;22.50;49.70
22290;DHT22;11313;50.116;8.424;2022-07-19T05:16:58;22.50;49.60
22290;DHT22;11313;50.116;8.424;2022-07-19T05:19:24;22.60;49.40
22290;DHT22;11313;50.116;8.424;2022-07-19T06:34:31;23.20;48.60
22290;DHT22;11313;50.116;8.424;2022-07-19T06:36:56;23.10;48.50
22290;DHT22;11313;50.116;8.424;2022-07-19T06:39:22;23.20;48.50
22290;DHT22;11313;50.116;8.424;2022-07-19T06:41:47;23.20;49.20
22290;DHT22;11313;50.116;8.424;2022-07-19T06:44:14;23.20;48.60
22290;DHT22;11313;50.116;8.424;2022-07-19T06:46:39;23.10;48.50
22290;DHT22;11313;50.116;8.424;2022-07-19T06:49:05;23.00;48.50
22290;DHT22;11313;50.116;8.424;2022-07-19T06:51:30;23.20;48.60
22290;DHT22;11313;50.116;8.424;2022-07-19T06:53:56;23.20;48.60
22290;DHT22;11313;50.116;8.424;2022-07-19T06:56:22;23.20;48.60
22290;DHT22;11313;50.116;8.424;2022-07-19T06:58:47;23.20;48.60
22290;DHT22;11313;50.116;8.424;2022-07-19T07:01:13;23.20;48.60
22290;DHT22;11313;50.116;8.424;2022-07-19T07:03:39;23.20;48.60
22290;DHT22;11313;50.116;8.424;2022-07-19T07:06:05;23.20;48.60
22290;DHT22;11313;50.116;8.424;2022-07-19T07:08:31;23.20;48.60
22290;DHT22;11313;50.116;8.424;2022-07-19T07:10:57;23.20;48.60
22290;DHT22;11313;50.116;8.424;2022-07-19T07:13:22;23.20;48.60
22290;DHT22;11313;50.116;8.424;2022-07-19T07:15:48;23.20;48.60
22290;DHT22;11313;50.116;8.424;2022-07-19T07:18:14;23.20;48.60
22290;DHT22;11313;50.116;8.424;2022-07-19T07:20:40;23.20;48.60
22290;DHT22;11313;50.116;8.424;2022-07-19T07:23:06;23.20;48.60
22290;DHT22;11313;50.116;8.424;2022-07-19T07:25:31;23.20;48.60
22290;DHT22;11313;50.116;8.424;2022-07-19T07:27:57;23.30;48.60
22290;DHT22;11313;50.116;8.424;2022-07-19T07:30:23;23.30;48.60
22290;DHT22;11313;50.116;8.424;2022-07-19T07:32:48;23.30;48.60
22290;DHT22;11313;50.116;8.424;2022-07-19T07:35:14;23.30;48.60
22290;DHT22;11313;50.116;8.424;2022-07-19T07:37:39;23.30;48.60
22290;DHT22;11313;50.116;8.424;2022-07-19T07:40:05;23.30;48.60
22290;DHT22;11313;50.116;8.424;2022-07-19T07:42:32;23.30;48.60
22290;DHT22;11313;50.116;8.424;2022-07-19T07:45:01;23.30;48.60
22290;DHT22;11313;50.116;8.424;2022-07-19T07:47:27;23.30;48.60
22290;DHT22;11313;50.116;8.424;2022-07-19T07:49:53;23.30;48.60
22290;DHT22;11313;50.116;8.424;2022-07-19T07:52:18;23.30;48.60
22290;DHT22;11313;50.116;8.424;2022-07-19T07:54:44;23.30;48.60
22290;DHT22;11313;50.116;8.424;2022-07-19T07:57:10;23.30;48.60
22290;DHT22;11313;50.116;8.424;2022-07-19T07:59:35;23.30;48.60
22290;DHT22;11313;50.116;8.424;2022-07-19T08:02:01;23.40;48.60
22290;DHT22;11313;50.116;8.424;2022-07-19T08:04:27;23.30;48.60
22290;DHT22;11313;50.116;8.424;2022-07-19T08:06:53;23.20;48.50
22290;DHT22;11313;50.116;8.424;2022-07-19T08:09:19;23.30;48.60
22290;DHT22;11313;50.116;8.424;2022-07-19T08:11:45;23.30;48.60
22290;DHT22;11313;50.116;8.424;2022-07-19T08:14:10;23.40;48.60
22290;DHT22;11313;50.116;8.424;2022-07-19T08:16:36;23.30;48.60
22290;DHT22;11313;50.116;8.424;2022-07-19T08:19:02;23.30;48.60
22290;DHT22;11313;50.116;8.424;2022-07-19T08:21:27;23.30;48.60
22290;DHT22;11313;50.116;8.424;2022-07-19T08:23:53;23.30;48.50
22290;DHT22;11313;50.116;8.424;2022-07-19T08:26:20;23.40;48.60
22290;DHT22;11313;50.116;8.424;2022-07-19T08:28:45;23.30;48.60
22290;DHT22;11313;50.116;8.424;2022-07-19T08:31:13;23.30;48.50
22290;DHT22;11313;50.116;8.424;2022-07-19T08:33:40;23.40;48.60
22290;DHT22;11313;50.116;8.424;2022-07-19T08:36:06;23.40;48.60
22290;DHT22;11313;50.116;8.424;2022-07-19T08:38:32;23.40;48.60
22290;DHT22;11313;50.116;8.424;2022-07-19T08:40:59;23.20;48.50
22290;DHT22;11313;50.116;8.424;2022-07-19T08:43:26;23.40;48.60
22290;DHT22;11313;50.116;8.424;2022-07-19T08:45:52;23.40;48.60
22290;DHT22;11313;50.116;8.424;2022-07-19T08:48:18;23.40;48.60
22290;DHT22;11313;50.116;8.424;2022-07-19T08:50:46;23.40;48.60
22290;DHT22;11313;50.116;8.424;2022-07-19T08:53:12;23.40;48.50
22290;DHT22;11313;50.116;8.424;2022-07-19T08:55:37;23.40;48.60
22290;DHT22;11313;50.116;8.424;2022-07-19T08:58:03;23.40;48.60
22290;DHT22;11313;50.116;8.424;2022-07-19T09:00:31;23.40;48.50
22290;DHT22;11313;50.116;8.424;2022-07-19T09:03:00;23.40;48.50
22290;DHT22;11313;50.116;8.424;2022-07-19T09:05:27;23.40;49.20
22290;DHT22;11313;50.116;8.424;2022-07-19T09:08:10;23.40;48.50
22290;DHT22;11313;50.116;8.424;2022-07-19T09:10:39;23.40;48.50
22290;DHT22;11313;50.116;8.424;2022-07-19T09:15:44;23.40;48.60
22290;DHT22;11313;50.116;8.424;2022-07-19T09:18:19;23.40;48.60
22290;DHT22;11313;50.116;8.424;2022-07-19T09:20:47;23.40;48.50
22290;DHT22;11313;50.116;8.424;2022-07-19T09:23:15;23.40;48.60
22290;DHT22;11313;50.116;8.424;2022-07-19T09:25:46;23.40;48.60
22290;DHT22;11313;50.116;8.424;2022-07-19T09:28:14;23.40;48.60
22290;DHT22;11313;50.116;8.424;2022-07-19T09:30:43;23.50;48.60
22290;DHT22;11313;50.116;8.424;2022-07-19T09:33:11;23.40;48.60
22290;DHT22;11313;50.116;8.424;2022-07-19T09:38:14;23.40;48.60
22290;DHT22;11313;50.116;8.424;2022-07-19T09:40:40;23.40;48.60
22290;DHT22;11313;50.116;8.424;2022-07-19T09:43:06;23.40;48.60
22290;DHT22;11313;50.116;8.424;2022-07-19T09:45:32;23.50;48.70
22290;DHT22;11313;50.116;8.424;2022-07-19T09:47:58;23.40;48.60
22290;DHT22;11313;50.116;8.424;2022-07-19T09:50:25;23.40;48.70
22290;DHT22;11313;50.116;8.424;2022-07-19T09:52:51;23.30;48.60
22290;DHT22;11313;50.116;8.424;2022-07-19T09:55:18;23.40;48.70
22290;DHT22;11313;50.116;8.424;2022-07-19T09:57:49;23.50;48.70
22290;DHT22;11313;50.116;8.424;2022-07-19T10:00:20;23.40;48.70
22290;DHT22;11313;50.116;8.424;2022-07-19T10:02:55;23.40;48.70
22290;DHT22;11313;50.116;8.424;2022-07-19T10:05:21;23.40;48.70
22290;DHT22;11313;50.116;8.424;2022-07-19T10:07:47;23.40;48.70
22290;DHT22;11313;50.116;8.424;2022-07-19T10:10:15;23.50;48.80
22290;DHT22;11313;50.116;8.424;2022-07-19T10:12:44;23.40;48.70
22290;DHT22;11313;50.116;8.424;2022-07-19T10:15:12;23.40;48.80
22290;DHT22;11313;50.116;8.424;2022-07-19T10:18:31;23.40;48.80
22290;DHT22;11313;50.116;8.424;2022-07-19T10:20:50;23.40;48.80
22290;DHT22;11313;50.116;8.424;2022-07-19T10:23:16;23.40;48.80
22290;DHT22;11313;50.116;8.424;2022-07-19T10:25:50;23.40;48.80
22290;DHT22;11313;50.116;8.424;2022-07-19T10:28:33;23.40;48.80
22290;DHT22;11313;50.116;8.424;2022-07-19T10:31:00;23.40;48.80
22290;DHT22;11313;50.116;8.424;2022-07-19T10:33:31;23.40;48.80
22290;DHT22;11313;50.116;8.424;2022-07-19T10:35:58;23.40;48.80
22290;DHT22;11313;50.116;8.424;2022-07-19T10:44:31;23.40;48.80
22290;DHT22;11313;50.116;8.424;2022-07-19T10:46:57;23.40;48.80
22290;DHT22;11313;50.116;8.424;2022-07-19T10:52:38;23.50;48.90
22290;DHT22;11313;50.116;8.424;2022-07-19T11:00:31;23.40;48.80
22290;DHT22;11313;50.116;8.424;2022-07-19T11:03:27;23.40;48.90
22290;DHT22;11313;50.116;8.424;2022-07-19T11:06:01;23.40;48.90
22290;DHT22;11313;50.116;8.424;2022-07-19T11:11:03;23.40;48.90
22290;DHT22;11313;50.116;8.424;2022-07-19T11:13:29;23.40;48.90
22290;DHT22;11313;50.116;8.424;2022-07-19T11:15:56;23.40;48.90
22290;DHT22;11313;50.116;8.424;2022-07-19T11:18:22;23.40;48.90
22290;DHT22;11313;50.116;8.424;2022-07-19T11:20:47;23.40;48.90
22290;DHT22;11313;50.116;8.424;2022-07-19T11:23:17;23.50;49.00
22290;DHT22;11313;50.116;8.424;2022-07-19T11:25:44;23.40;48.90
22290;DHT22;11313;50.116;8.424;2022-07-19T11:28:23;23.40;48.90
22290;DHT22;11313;50.116;8.424;2022-07-19T11:30:49;23.40;48.90
22290;DHT22;11313;50.116;8.424;2022-07-19T11:33:17;23.40;49.00
22290;DHT22;11313;50.116;8.424;2022-07-19T11:35:57;23.40;48.90
22290;DHT22;11313;50.116;8.424;2022-07-19T11:38:24;23.40;49.00
22290;DHT22;11313;50.116;8.424;2022-07-19T11:40:58;23.40;49.00
22290;DHT22;11313;50.116;8.424;2022-07-19T11:43:23;23.50;49.10
22290;DHT22;11313;50.116;8.424;2022-07-19T11:45:49;23.40;49.00
22290;DHT22;11313;50.116;8.424;2022-07-19T11:48:26;23.40;49.00
22290;DHT22;11313;50.116;8.424;2022-07-19T11:51:07;23.40;49.00
22290;DHT22;11313;50.116;8.424;2022-07-19T11:53:34;23.40;49.00
22290;DHT22;11313;50.116;8.424;2022-07-19T11:56:00;23.50;49.10
22290;DHT22;11313;50.116;8.424;2022-07-19T11:58:27;23.50;49.10
22290;DHT22;11313;50.116;8.424;2022-07-19T12:01:00;23.40;49.00
22290;DHT22;11313;50.116;8.424;2022-07-19T12:03:25;23.40;49.00
22290;DHT22;11313;50.116;8.424;2022-07-19T12:05:57;23.40;49.00
22290;DHT22;11313;50.116;8.424;2022-07-19T12:08:36;23.40;49.00
22290;DHT22;11313;50.116;8.424;2022-07-19T12:11:15;23.40;49.00
22290;DHT22;11313;50.116;8.424;2022-07-19T12:13:40;23.40;49.10
22290;DHT22;11313;50.116;8.424;2022-07-19T12:16:11;23.40;49.10
22290;DHT22;11313;50.116;8.424;2022-07-19T12:24:13;23.40;49.10
22290;DHT22;11313;50.116;8.424;2022-07-19T12:32:02;23.50;49.20
22290;DHT22;11313;50.116;8.424;2022-07-19T12:34:29;23.50;49.20
22290;DHT22;11313;50.116;8.424;2022-07-19T12:37:18;23.50;49.20
22290;DHT22;11313;50.116;8.424;2022-07-19T12:39:59;23.50;49.20
22290;DHT22;11313;50.116;8.424;2022-07-19T12:42:26;23.40;49.20
22290;DHT22;11313;50.116;8.424;2022-07-19T12:44:51;23.50;49.20
22290;DHT22;11313;50.116;8.424;2022-07-19T12:47:17;23.40;49.20
22290;DHT22;11313;50.116;8.424;2022-07-19T12:49:44;23.50;49.20
22290;DHT22;11313;50.116;8.424;2022-07-19T12:52:11;23.50;49.20
22290;DHT22;11313;50.116;8.424;2022-07-19T12:54:36;23.50;49.20
22290;DHT22;11313;50.116;8.424;2022-07-19T12:57:02;23.50;49.30
22290;DHT22;11313;50.116;8.424;2022-07-19T12:59:28;23.50;49.20
22290;DHT22;11313;50.116;8.424;2022-07-19T13:02:11;23.50;49.30
22290;DHT22;11313;50.116;8.424;2022-07-19T13:04:38;23.50;49.20
22290;DHT22;11313;50.116;8.424;2022-07-19T13:07:05;23.40;49.30
22290;DHT22;11313;50.116;8.424;2022-07-19T13:09:31;23.40;49.20
22290;DHT22;11313;50.116;8.424;2022-07-19T13:11:56;23.40;49.20
22290;DHT22;11313;50.116;8.424;2022-07-19T13:14:22;23.50;49.30
22290;DHT22;11313;50.116;8.424;2022-07-19T13:16:49;23.50;49.30
22290;DHT22;11313;50.116;8.424;2022-07-19T13:19:15;23.50;49.30
22290;DHT22;11313;50.116;8.424;2022-07-19T13:21:41;23.50;49.30
22290;DHT22;11313;50.116;8.424;2022-07-19T13:24:06;23.50;49.40
22290;DHT22;11313;50.116;8.424;2022-07-19T13:26:32;23.50;49.40
22290;DHT22;11313;50.116;8.424;2022-07-19T13:28:57;23.50;49.40
22290;DHT22;11313;50.116;8.424;2022-07-19T13:31:23;23.50;49.40
22290;DHT22;11313;50.116;8.424;2022-07-19T13:33:48;23.50;49.30
22290;DHT22;11313;50.116;8.424;2022-07-19T13:36:14;23.50;49.40
22290;DHT22;11313;50.116;8.424;2022-07-19T13:38:40;23.50;49.40
22290;DHT22;11313;50.116;8.424;2022-07-19T13:41:07;23.50;49.40
22290;DHT22;11313;50.116;8.424;2022-07-19T13:43:33;23.50;49.40
22290;DHT22;11313;50.116;8.424;2022-07-19T13:45:59;23.50;49.40
22290;DHT22;11313;50.116;8.424;2022-07-19T13:48:25;23.50;49.40
22290;DHT22;11313;50.116;8.424;2022-07-19T13:50:51;23.50;49.40
22290;DHT22;11313;50.116;8.424;2022-07-19T13:53:16;23.50;49.40
22290;DHT22;11313;50.116;8.424;2022-07-19T13:55:42;23.40;49.40
22290;DHT22;11313;50.116;8.424;2022-07-19T13:58:07;23.50;49.40
22290;DHT22;11313;50.116;8.424;2022-07-19T14:00:33;23.50;49.40
22290;DHT22;11313;50.116;8.424;2022-07-19T14:02:59;23.50;50.10
22290;DHT22;11313;50.116;8.424;2022-07-19T14:05:24;23.50;49.40
22290;DHT22;11313;50.116;8.424;2022-07-19T14:07:50;23.50;49.40
22290;DHT22;11313;50.116;8.424;2022-07-19T14:10:16;23.50;49.50
22290;DHT22;11313;50.116;8.424;2022-07-19T14:12:41;23.50;49.40
22290;DHT22;11313;50.116;8.424;2022-07-19T14:15:07;23.50;49.50
22290;DHT22;11313;50.116;8.424;2022-07-19T14:17:33;23.50;49.50
22290;DHT22;11313;50.116;8.424;2022-07-19T14:19:58;23.50;49.40
22290;DHT22;11313;50.116;8.424;2022-07-19T14:22:24;23.50;49.50
22290;DHT22;11313;50.116;8.424;2022-07-19T14:24:50;23.50;49.50
22290;DHT22;11313;50.116;8.424;2022-07-19T14:27:16;23.50;49.50
22290;DHT22;11313;50.116;8.424;2022-07-19T14:29:42;23.50;49.50
22290;DHT22;11313;50.116;8.424;2022-07-19T14:32:08;23.50;49.50
22290;DHT22;11313;50.116;8.424;2022-07-19T14:34:33;23.50;49.50
22290;DHT22;11313;50.116;8.424;2022-07-19T14:36:59;23.50;49.60
22290;DHT22;11313;50.116;8.424;2022-07-19T14:39:24;23.50;49.50
22290;DHT22;11313;50.116;8.424;2022-07-19T14:41:50;23.40;49.50
22290;DHT22;11313;50.116;8.424;2022-07-19T14:44:15;23.50;49.60
22290;DHT22;11313;50.116;8.424;2022-07-19T14:46:41;23.50;49.60
22290;DHT22;11313;50.116;8.424;2022-07-19T14:49:06;23.40;49.60
22290;DHT22;11313;50.116;8.424;2022-07-19T14:51:32;23.50;49.60
22290;DHT22;11313;50.116;8.424;2022-07-19T14:53:58;23.50;49.60
22290;DHT22;11313;50.116;8.424;2022-07-19T14:56:26;23.50;49.70
22290;DHT22;11313;50.116;8.424;2022-07-19T14:58:52;23.50;49.70
22290;DHT22;11313;50.116;8.424;2022-07-19T15:01:17;23.50;49.70
22290;DHT22;11313;50.116;8.424;2022-07-19T15:03:43;23.50;49.70
22290;DHT22;11313;50.116;8.424;2022-07-19T15:06:08;23.50;49.70
22290;DHT22;11313;50.116;8.424;2022-07-19T15:08:34;23.50;49.80
22290;DHT22;11313;50.116;8.424;2022-07-19T15:10:59;23.50;49.80
22290;DHT22;11313;50.116;8.424;2022-07-19T15:13:25;23.50;49.80
22290;DHT22;11313;50.116;8.424;2022-07-19T15:15:50;23.50;49.70
22290;DHT22;11313;50.116;8.424;2022-07-19T15:18:18;23.50;49.70
22290;DHT22;11313;50.116;8.424;2022-07-19T15:20:43;23.50;49.80
22290;DHT22;11313;50.116;8.424;2022-07-19T15:23:10;23.50;49.80
22290;DHT22;11313;50.116;8.424;2022-07-19T15:25:36;23.50;50.40
22290;DHT22;11313;50.116;8.424;2022-07-19T15:28:01;23.50;49.80
22290;DHT22;11313;50.116;8.424;2022-07-19T15:30:27;23.50;49.80
22290;DHT22;11313;50.116;8.424;2022-07-19T15:32:53;23.50;49.80
22290;DHT22;11313;50.116;8.424;2022-07-19T15:35:19;23.50;49.80
22290;DHT22;11313;50.116;8.424;2022-07-19T15:37:44;23.50;49.80
22290;DHT22;11313;50.116;8.424;2022-07-19T15:40:10;23.50;49.80
22290;DHT22;11313;50.116;8.424;2022-07-19T15:42:43;23.50;49.80
22290;DHT22;11313;50.116;8.424;2022-07-19T15:45:09;23.50;49.80
22290;DHT22;11313;50.116;8.424;2022-07-19T15:47:34;23.50;49.80
22290;DHT22;11313;50.116;8.424;2022-07-19T15:50:00;23.50;49.80
22290;DHT22;11313;50.116;8.424;2022-07-19T15:52:25;23.50;49.80
22290;DHT22;11313;50.116;8.424;2022-07-19T15:54:51;23.50;49.90
22290;DHT22;11313;50.116;8.424;2022-07-19T15:57:16;23.50;49.90
22290;DHT22;11313;50.116;8.424;2022-07-19T15:59:42;23.50;49.90
22290;DHT22;11313;50.116;8.424;2022-07-19T16:02:07;23.50;49.90
22290;DHT22;11313;50.116;8.424;2022-07-19T16:04:33;23.50;49.90
22290;DHT22;11313;50.116;8.424;2022-07-19T16:06:58;23.50;49.90
22290;DHT22;11313;50.116;8.424;2022-07-19T16:09:24;23.50;49.90
22290;DHT22;11313;50.116;8.424;2022-07-19T16:11:49;23.50;50.60
22290;DHT22;11313;50.116;8.424;2022-07-19T16:14:15;23.50;49.90
22290;DHT22;11313;50.116;8.424;2022-07-19T16:16:40;23.50;49.90
22290;DHT22;11313;50.116;8.424;2022-07-19T16:19:06;23.50;49.90
22290;DHT22;11313;50.116;8.424;2022-07-19T16:21:32;23.50;49.90
22290;DHT22;11313;50.116;8.424;2022-07-19T16:23:57;23.60;50.00
22290;DHT22;11313;50.116;8.424;2022-07-19T16:26:23;23.50;49.90
22290;DHT22;11313;50.116;8.424;2022-07-19T16:28:48;23.50;49.90
22290;DHT22;11313;50.116;8.424;2022-07-19T16:31:15;23.50;49.90
22290;DHT22;11313;50.116;8.424;2022-07-19T16:33:40;23.60;50.00
22290;DHT22;11313;50.116;8.424;2022-07-19T16:36:07;23.60;50.00
22290;DHT22;11313;50.116;8.424;2022-07-19T16:38:32;23.50;50.00
22290;DHT22;11313;50.116;8.424;2022-07-19T16:40:58;23.50;50.00
22290;DHT22;11313;50.116;8.424;2022-07-19T16:43:23;23.60;50.00
22290;DHT22;11313;50.116;8.424;2022-07-19T16:45:49;23.60;50.00
22290;DHT22;11313;50.116;8.424;2022-07-19T16:48:14;23.60;50.00
22290;DHT22;11313;50.116;8.424;2022-07-19T16:50:42;23.50;50.00
22290;DHT22;11313;50.116;8.424;2022-07-19T16:53:08;23.60;50.00
22290;DHT22;11313;50.116;8.424;2022-07-19T16:55:35;23.60;50.00
22290;DHT22;11313;50.116;8.424;2022-07-19T16:58:00;23.60;50.00
22290;DHT22;11313;50.116;8.424;2022-07-19T17:00:26;23.60;50.00
22290;DHT22;11313;50.116;8.424;2022-07-19T17:02:51;23.60;50.00
22290;DHT22;11313;50.116;8.424;2022-07-19T17:05:17;23.60;50.00
22290;DHT22;11313;50.116;8.424;2022-07-19T17:07:43;23.60;50.00
22290;DHT22;11313;50.116;8.424;2022-07-19T17:10:08;23.60;50.00
22290;DHT22;11313;50.116;8.424;2022-07-19T17:12:34;23.60;50.00